Weather at Liverpool John Lennon Airport

Public forecast

Using degrees Celsius for public forecast. Weather courtesy of forecast.io.

Current aviation weather report (METAR) for Liverpool John Lennon Airport

Retrieved 2020/11/29 04:20 UTC (3 minutes ago):

EGGP 290420Z AUTO 16006KT 6000 OVC006/// 09/08 Q1024

Aviation forecast (TAF) for Liverpool John Lennon Airport

Retrieved 2020-11-29 00:00 UTC (4 hours ago):

TAF EGGP 282304Z 2900/2924 13005KT 4000 BR BKN010 PROB30 TEMPO 2900/2912 0300 FG VV/// BECMG 2912/2915 BKN012 TEMPO 2912/2924 SCT020 PROB30 TEMPO 2918/2924 1300 BKN006